Los Angeles, California
Traffic Map
Current Weather Conditions
Los Angeles, California
Clear
Clear
23°
Feels Like: 23°
Wind Chill: 23° Ceiling: Unl
Heat Index: 23° Visibility: 10mi
Dew Point: Wind: 6mph
Humidity: 39% Direction: ° ()
Pressure: 29.9in Gusts: 0mph
Raw Report DataKCQT 242247Z AUTO VRB05KT 10SM CLR 23/08 A2990 RMK AO2 SLP124 T02280083
Traffic Incident Summary
Active as of:
Severity:
Category:
InformationThere was an issue retrieving the traffic information for this location. Please try a different location or try again shortly.
Advertisements
At Last! Intellicast now available for iPhone and Android